Toledo, OH (43606)

5:06 PM EDT on August 04, 2015 (GMT -0400)
University of Toledo | | Change Station
CLOSE
Current Station
Personal Weather Station
Location: Toledo, OH
Elevation: 604 ft
Nearby Weather Stations

Elev 604 ft 41.66 °N, 83.62 °W | Updated 8 minutes ago

Partly Cloudy
Partly Cloudy
79.3 °F
Feels Like 80 °F
N
0.0
Wind Variable Wind from WNW
Gusts 0.9 mph

Today
High -- | Low -- °F
--% Chance of Precip.
Yesterday
High -- | Low -- °F
Precip. -- in
6:31 AM 8:48 PM
Waning Gibbous, 74% visible
Pressure 29.93 in
Visibility 10.0 miles
Clouds Scattered Clouds 6000 ft
Mostly Cloudy 7500 ft
Heat Index 80 °F
Dew Point 59 °F
Humidity 49%
Rainfall -999.00 in
Snow Depth Not available.
UV 3 out of 12
Pollen 7.60 out of 12
Air Quality Not available.
Flu Activity Not available.
METAR KTDZ 042053Z AUTO 30013KT 10SM SCT060 BKN075 28/13 A2994 RMK AO2 SLP135 T02780128 56003

More Conditions Fewer Conditions

Pressure 29.93 in
Visibility 10.0 miles
Clouds Scattered Clouds 6000 ft
Mostly Cloudy 7500 ft
Heat Index 80 °F
Dew Point 59 °F
Humidity 49%
Rainfall -999.00 in
Snow Depth Not available.
UV 3 out of 12
Pollen 7.60 out of 12
Air Quality Not available.
Flu Activity Not available.
METAR KTDZ 042053Z AUTO 30013KT 10SM SCT060 BKN075 28/13 A2994 RMK AO2 SLP135 T02780128 56003

More Conditions Fewer Conditions

10-Day Weather Forecast

×

Almanac

Astronomy

Aug. 04, 2015 Rise Set
Actual Time
Civil Twilight
Nautical Twilight
Astronomical Twilight
Moon
Length of Visible Light
Length of Day
Tomorrow will be .
, % of the Moon is Illuminated

Today's Extremes

State Highs State Lows

Community

WunderPhotos

Upload Photos

1,843,980 photos uploaded!

WunderBlogs® & News

Nearby

Air Quality

  Air Quality AQ Index Pollutant
Not available.

Snow Depth

Station Depth Elevation

Earthquake Activity

City Distance Mag. Time & Date
Minimum magnitude displayed is 2.5.

Coastal Water Temperatures

Place Temperature

Stations

Nearby Weather Stations

Station Location Temp. Windchill Dew Point Humidity Wind Precip. Elev Updated Type